createdAt,value
2022-08-19T00:02:17.172Z,100.00
2022-08-19T00:04:47.882Z,100.00
2022-08-19T00:07:16.270Z,100.00
2022-08-19T00:09:48.073Z,100.00
2022-08-19T00:12:16.704Z,100.00
2022-08-19T00:14:45.144Z,100.00
2022-08-19T00:17:13.695Z,100.00
2022-08-19T00:19:42.475Z,100.00
2022-08-19T00:22:12.932Z,100.00
2022-08-19T00:24:44.565Z,100.00
2022-08-19T00:27:26.254Z,100.00
2022-08-19T00:29:55.401Z,100.00
2022-08-19T00:32:23.896Z,100.00
2022-08-19T00:34:54.312Z,100.00
2022-08-19T00:37:24.063Z,100.00
2022-08-19T00:39:53.005Z,100.00
2022-08-19T00:42:24.016Z,100.00
2022-08-19T00:44:54.623Z,100.00
2022-08-19T00:47:23.072Z,100.00
2022-08-19T00:49:54.187Z,100.00
2022-08-19T00:52:25.643Z,100.00
2022-08-19T00:54:55.004Z,100.00
2022-08-19T00:57:31.999Z,100.00
2022-08-19T01:00:03.404Z,100.00
2022-08-19T01:02:34.235Z,100.00
2022-08-19T01:05:05.086Z,100.00
2022-08-19T01:07:36.007Z,100.00
2022-08-19T01:10:09.924Z,100.00
2022-08-19T01:12:42.284Z,100.00
2022-08-19T01:15:12.907Z,100.00
2022-08-19T01:17:42.272Z,100.00
2022-08-19T01:20:14.876Z,100.00
2022-08-19T01:22:48.410Z,100.00
2022-08-19T01:25:19.408Z,100.00
2022-08-19T01:27:53.314Z,100.00
2022-08-19T01:30:25.162Z,100.00
2022-08-19T01:32:54.835Z,100.00
2022-08-19T01:35:25.369Z,100.00
2022-08-19T01:37:57.853Z,100.00
2022-08-19T01:40:31.839Z,100.00
2022-08-19T01:43:01.133Z,100.00
2022-08-19T01:45:30.847Z,100.00
2022-08-19T01:48:02.761Z,100.00
2022-08-19T01:50:32.712Z,100.00
2022-08-19T01:53:06.852Z,100.00
2022-08-19T01:55:40.899Z,100.00
2022-08-19T01:58:16.041Z,100.00
2022-08-19T02:00:44.731Z,100.00
2022-08-19T02:03:13.171Z,100.00
2022-08-19T02:05:42.763Z,100.00
2022-08-19T02:08:13.340Z,100.00
2022-08-19T02:10:46.069Z,100.00
2022-08-19T02:13:15.471Z,100.00
2022-08-19T02:15:44.060Z,100.00
2022-08-19T02:18:12.516Z,100.00
2022-08-19T02:20:44.712Z,100.00
2022-08-19T02:23:18.173Z,100.00
2022-08-19T02:25:50.139Z,100.00
2022-08-19T02:28:19.168Z,100.00
2022-08-19T02:30:49.307Z,100.00
2022-08-19T02:33:18.314Z,100.00
2022-08-19T02:35:48.075Z,100.00
2022-08-19T02:38:28.268Z,100.00
2022-08-19T02:40:59.535Z,100.00
2022-08-19T02:43:33.944Z,100.00
2022-08-19T02:46:03.911Z,100.00
2022-08-19T02:48:33.721Z,100.00
2022-08-19T02:51:02.532Z,100.00
2022-08-19T02:53:32.206Z,100.00
2022-08-19T02:56:00.819Z,100.00
2022-08-19T02:58:29.155Z,100.00
2022-08-19T03:00:59.157Z,100.00
2022-08-19T03:03:28.088Z,100.00
2022-08-19T03:06:10.484Z,100.00
2022-08-19T03:08:42.622Z,100.00
2022-08-19T03:11:15.744Z,100.00
2022-08-19T03:13:44.773Z,100.00
2022-08-19T03:16:14.398Z,100.00
2022-08-19T03:18:43.089Z,100.00
2022-08-19T03:21:18.529Z,100.00
2022-08-19T03:23:48.446Z,100.00
2022-08-19T03:26:17.314Z,100.00
2022-08-19T03:28:51.792Z,100.00
2022-08-19T03:31:43.388Z,100.00
2022-08-19T03:34:16.465Z,100.00
2022-08-19T03:36:45.416Z,100.00
2022-08-19T03:39:18.082Z,100.00
2022-08-19T03:41:48.506Z,100.00
2022-08-19T03:44:20.587Z,100.00
2022-08-19T03:46:50.571Z,100.00
2022-08-19T03:49:27.155Z,100.00
2022-08-19T03:51:58.465Z,100.00
2022-08-19T03:54:30.940Z,100.00
2022-08-19T03:57:00.377Z,100.00
2022-08-19T03:59:31.544Z,100.00
2022-08-19T04:02:02.121Z,100.00
2022-08-19T04:04:31.849Z,100.00
2022-08-19T04:07:04.113Z,100.00
2022-08-19T04:09:37.523Z,100.00
2022-08-19T04:12:07.580Z,100.00
2022-08-19T04:14:36.534Z,100.00
2022-08-19T04:17:06.409Z,100.00
2022-08-19T04:19:38.060Z,100.00
2022-08-19T04:22:07.788Z,100.00
2022-08-19T04:24:37.998Z,100.00
2022-08-19T04:27:07.441Z,100.00
2022-08-19T04:29:35.984Z,100.00
2022-08-19T04:32:09.193Z,100.00
2022-08-19T04:35:02.530Z,100.00
2022-08-19T04:37:35.065Z,100.00
2022-08-19T04:40:25.835Z,100.00
2022-08-19T04:42:55.058Z,100.00
2022-08-19T04:45:26.337Z,100.00
2022-08-19T04:48:19.723Z,100.00
2022-08-19T04:50:46.529Z,100.00
2022-08-19T04:53:14.876Z,100.00
2022-08-19T04:55:44.806Z,100.00
2022-08-19T04:58:17.396Z,100.00
2022-08-19T05:00:48.321Z,100.00
2022-08-19T05:03:17.955Z,100.00
2022-08-19T05:05:49.357Z,100.00
2022-08-19T05:08:30.738Z,100.00
2022-08-19T05:11:01.995Z,100.00
2022-08-19T05:13:30.983Z,100.00
2022-08-19T05:16:00.855Z,100.00
2022-08-19T05:18:46.563Z,100.00
2022-08-19T05:21:34.696Z,100.00
2022-08-19T05:24:09.771Z,100.00
2022-08-19T05:26:41.067Z,100.00
2022-08-19T05:29:11.061Z,100.00
2022-08-19T05:31:42.165Z,100.00
2022-08-19T05:34:20.059Z,100.00
2022-08-19T05:36:50.527Z,100.00
2022-08-19T05:39:21.985Z,100.00
2022-08-19T05:41:55.519Z,100.00
2022-08-19T05:44:23.899Z,100.00
2022-08-19T05:46:54.080Z,100.00
2022-08-19T05:49:24.566Z,100.00
2022-08-19T05:51:53.192Z,100.00
2022-08-19T05:54:22.215Z,100.00
2022-08-19T05:56:53.302Z,100.00
2022-08-19T05:59:23.150Z,100.00
2022-08-19T06:01:55.340Z,100.00
2022-08-19T06:04:26.415Z,100.00
2022-08-19T06:06:55.961Z,100.00
2022-08-19T06:09:25.397Z,100.00
2022-08-19T06:11:59.805Z,100.00
2022-08-19T06:14:35.049Z,100.00
2022-08-19T06:17:07.266Z,100.00
2022-08-19T06:19:40.857Z,100.00
2022-08-19T06:22:10.721Z,100.00
2022-08-19T06:24:39.111Z,100.00
2022-08-19T06:27:08.840Z,100.00
2022-08-19T06:29:37.558Z,100.00
2022-08-19T06:32:06.930Z,100.00
2022-08-19T06:34:37.096Z,100.00
2022-08-19T06:37:06.656Z,100.00
2022-08-19T06:39:39.355Z,100.00
2022-08-19T06:42:12.460Z,100.00
2022-08-19T06:44:48.049Z,100.00
2022-08-19T06:47:23.375Z,100.00
2022-08-19T06:50:01.349Z,100.00
2022-08-19T06:52:31.887Z,100.00
2022-08-19T06:55:05.953Z,100.00
2022-08-19T06:57:36.802Z,100.00
2022-08-19T07:00:12.966Z,100.00
2022-08-19T07:02:43.441Z,100.00
2022-08-19T07:05:15.459Z,100.00
2022-08-19T07:07:44.704Z,100.00
2022-08-19T07:10:16.110Z,100.00
2022-08-19T07:12:48.451Z,100.00
2022-08-19T07:15:19.521Z,100.00
2022-08-19T07:17:52.582Z,100.00
2022-08-19T07:20:21.718Z,100.00
2022-08-19T07:22:56.861Z,100.00
2022-08-19T07:25:32.358Z,100.00
2022-08-19T07:28:03.153Z,100.00
2022-08-19T07:30:31.835Z,100.00
2022-08-19T07:33:03.449Z,100.00
2022-08-19T07:35:33.120Z,100.00
2022-08-19T07:38:03.641Z,100.00
2022-08-19T07:40:32.890Z,100.00
2022-08-19T07:43:01.338Z,100.00
2022-08-19T07:45:31.765Z,100.00
2022-08-19T07:48:01.029Z,100.00
2022-08-19T07:50:29.730Z,100.00
2022-08-19T07:52:58.106Z,100.00
2022-08-19T07:55:41.039Z,100.00
2022-08-19T07:58:13.824Z,100.00
2022-08-19T08:00:44.864Z,100.00
2022-08-19T08:03:14.231Z,100.00
2022-08-19T08:06:03.325Z,100.00
2022-08-19T08:08:49.183Z,100.00
2022-08-19T08:11:21.037Z,100.00
2022-08-19T08:14:01.370Z,100.00
2022-08-19T08:16:39.363Z,100.00
2022-08-19T08:19:14.764Z,100.00
2022-08-19T08:21:57.237Z,100.00
2022-08-19T08:24:28.506Z,100.00
2022-08-19T08:26:57.806Z,100.00
2022-08-19T08:29:34.758Z,100.00
2022-08-19T08:32:14.135Z,100.00
2022-08-19T08:34:43.579Z,100.00
2022-08-19T08:37:12.013Z,100.00
2022-08-19T08:39:40.659Z,100.00
2022-08-19T08:42:16.883Z,100.00
2022-08-19T08:47:37.077Z,100.00
2022-08-19T08:50:08.836Z,100.00
2022-08-19T08:52:47.188Z,100.00
2022-08-19T08:55:20.504Z,100.00
2022-08-19T08:57:55.968Z,100.00
2022-08-19T09:00:30.463Z,100.00
2022-08-19T09:03:01.904Z,100.00
2022-08-19T09:05:42.157Z,100.00
2022-08-19T09:08:30.140Z,100.00
2022-08-19T09:10:59.323Z,100.00
2022-08-19T09:13:37.529Z,100.00
2022-08-19T09:16:09.575Z,100.00
2022-08-19T09:18:44.855Z,100.00
2022-08-19T09:21:14.237Z,100.00
2022-08-19T09:23:44.961Z,100.00
2022-08-19T09:26:16.877Z,100.00
2022-08-19T09:28:48.280Z,100.00
2022-08-19T09:31:19.868Z,100.00
2022-08-19T09:33:53.264Z,100.00
2022-08-19T09:36:34.569Z,100.00
2022-08-19T09:39:04.723Z,100.00
2022-08-19T09:41:47.666Z,100.00
2022-08-19T09:44:18.135Z,100.00
2022-08-19T09:46:49.413Z,100.00
2022-08-19T09:49:22.697Z,100.00
2022-08-19T09:51:55.330Z,100.00
2022-08-19T09:54:25.059Z,100.00
2022-08-19T09:59:24.118Z,100.00
2022-08-19T10:01:52.955Z,100.00
2022-08-19T10:04:44.331Z,100.00
2022-08-19T10:07:13.812Z,100.00
2022-08-19T10:09:42.336Z,100.00
2022-08-19T10:12:11.275Z,100.00
2022-08-19T10:14:40.368Z,100.00
2022-08-19T10:17:17.899Z,100.00
2022-08-19T10:19:55.948Z,100.00
2022-08-19T10:22:25.629Z,100.00
2022-08-19T10:24:54.715Z,100.00
2022-08-19T10:27:23.319Z,100.00
2022-08-19T10:29:51.724Z,100.00
2022-08-19T10:32:33.819Z,100.00
2022-08-19T10:35:08.761Z,100.00
2022-08-19T10:37:42.332Z,100.00
2022-08-19T10:40:26.132Z,100.00
2022-08-19T10:42:57.324Z,100.00
2022-08-19T10:45:28.183Z,100.00
2022-08-19T10:47:56.689Z,100.00
2022-08-19T10:50:43.955Z,100.00
2022-08-19T10:53:12.390Z,100.00
2022-08-19T10:55:57.287Z,94.27
2022-08-19T10:58:27.228Z,88.63
2022-08-19T11:00:56.489Z,91.38
2022-08-19T11:03:25.562Z,89.19
2022-08-19T11:06:00.638Z,88.13
2022-08-19T11:08:28.855Z,88.96
2022-08-19T11:11:01.477Z,83.53
2022-08-19T11:13:30.256Z,85.47
2022-08-19T11:16:02.690Z,82.18
2022-08-19T11:18:33.360Z,83.81
2022-08-19T11:21:08.746Z,83.82
2022-08-19T11:23:37.094Z,83.44
2022-08-19T11:26:05.450Z,84.96
2022-08-19T11:28:33.681Z,85.56
2022-08-19T11:31:03.736Z,82.49
2022-08-19T11:33:32.180Z,84.52
2022-08-19T11:36:00.870Z,84.40
2022-08-19T11:38:31.328Z,84.49
2022-08-19T11:41:00.421Z,82.77
2022-08-19T11:43:28.650Z,84.32
2022-08-19T11:45:57.255Z,79.79
2022-08-19T11:48:27.844Z,80.04
2022-08-19T11:50:57.525Z,81.80
2022-08-19T11:53:25.671Z,81.13
2022-08-19T11:55:57.531Z,77.48
2022-08-19T11:58:26.071Z,74.52
2022-08-19T12:00:54.255Z,73.57
2022-08-19T12:03:22.337Z,72.56
2022-08-19T12:05:50.917Z,73.30
2022-08-19T12:08:19.026Z,70.64
2022-08-19T12:10:47.306Z,68.06
2022-08-19T12:13:19.594Z,67.88
2022-08-19T12:15:48.843Z,67.42
2022-08-19T12:18:16.976Z,67.48
2022-08-19T12:20:48.517Z,67.00
2022-08-19T12:23:19.182Z,68.40
2022-08-19T12:25:51.126Z,68.18
2022-08-19T12:28:21.665Z,66.21
2022-08-19T12:30:51.024Z,65.29
2022-08-19T12:33:25.048Z,64.23
2022-08-19T12:35:53.930Z,62.61
2022-08-19T12:38:25.157Z,63.56
2022-08-19T12:40:57.097Z,61.65
2022-08-19T12:43:31.290Z,59.18
2022-08-19T12:45:59.539Z,59.14
2022-08-19T12:48:34.496Z,57.43
2022-08-19T12:51:03.604Z,57.63
2022-08-19T12:53:31.884Z,57.82
2022-08-19T12:56:01.336Z,61.92
2022-08-19T12:58:31.064Z,61.46
2022-08-19T13:00:59.136Z,59.49
2022-08-19T13:03:30.271Z,61.35
2022-08-19T13:05:58.578Z,61.84
2022-08-19T13:08:26.770Z,58.39
2022-08-19T13:10:55.433Z,59.98
2022-08-19T13:13:23.689Z,58.83
2022-08-19T13:15:53.120Z,58.50
2022-08-19T13:18:21.688Z,57.46
2022-08-19T13:20:53.028Z,55.87
2022-08-19T13:23:21.309Z,56.00
2022-08-19T13:25:57.260Z,57.38
2022-08-19T13:28:28.994Z,58.18
2022-08-19T13:31:16.956Z,59.31
2022-08-19T13:33:46.201Z,59.38
2022-08-19T13:36:14.275Z,59.44
2022-08-19T13:38:43.245Z,60.06
2022-08-19T13:41:14.766Z,59.97
2022-08-19T13:43:43.075Z,59.95
2022-08-19T13:46:14.944Z,57.57
2022-08-19T13:48:43.176Z,58.55
2022-08-19T13:51:11.881Z,55.71
2022-08-19T13:53:47.769Z,54.21
2022-08-19T13:56:17.452Z,53.49
2022-08-19T13:58:45.629Z,52.63
2022-08-19T14:01:20.691Z,53.16
2022-08-19T14:03:52.856Z,51.37
2022-08-19T14:06:22.300Z,51.24
2022-08-19T14:08:50.973Z,51.18
2022-08-19T14:11:21.130Z,50.70
2022-08-19T14:13:49.175Z,50.76
2022-08-19T14:16:22.484Z,51.53
2022-08-19T14:18:50.616Z,51.83
2022-08-19T14:21:21.019Z,52.32
2022-08-19T14:23:49.240Z,51.77
2022-08-19T14:26:18.612Z,51.36
2022-08-19T14:28:46.801Z,51.89
2022-08-19T14:31:17.554Z,50.21
2022-08-19T14:33:47.176Z,49.68
2022-08-19T14:36:15.751Z,49.60
2022-08-19T14:38:43.957Z,48.85
2022-08-19T14:41:13.935Z,48.58
2022-08-19T14:43:42.500Z,47.82
2022-08-19T14:46:11.444Z,48.25
2022-08-19T14:48:41.475Z,45.78
2022-08-19T14:51:11.413Z,45.12
2022-08-19T14:53:39.756Z,44.80
2022-08-19T14:56:11.977Z,44.32
2022-08-19T14:58:41.115Z,44.23
2022-08-19T15:01:09.745Z,46.35
2022-08-19T15:03:37.898Z,43.77
2022-08-19T15:06:06.887Z,43.90
2022-08-19T15:08:37.821Z,44.54
2022-08-19T15:11:10.646Z,43.81
2022-08-19T15:13:39.171Z,42.32
2022-08-19T15:16:07.493Z,42.40
2022-08-19T15:18:47.036Z,42.47
2022-08-19T15:21:17.431Z,43.75
2022-08-19T15:23:57.232Z,43.09
2022-08-19T15:26:26.661Z,44.25
2022-08-19T15:28:55.352Z,45.12
2022-08-19T15:31:28.432Z,43.82
2022-08-19T15:33:58.307Z,43.22
2022-08-19T15:36:26.928Z,43.36
2022-08-19T15:38:56.594Z,43.88
2022-08-19T15:41:30.550Z,43.78
2022-08-19T15:44:03.830Z,44.71
2022-08-19T15:46:33.279Z,43.75
2022-08-19T15:49:01.734Z,44.46
2022-08-19T15:51:31.823Z,43.92
2022-08-19T15:54:01.347Z,44.25
2022-08-19T15:56:58.457Z,44.17
2022-08-19T15:59:47.457Z,45.11
2022-08-19T16:02:33.793Z,45.17
2022-08-19T16:05:19.504Z,45.78
2022-08-19T16:07:47.959Z,44.70
2022-08-19T16:10:26.473Z,44.87
2022-08-19T16:12:56.112Z,45.99
2022-08-19T16:15:24.374Z,45.99
2022-08-19T16:17:55.687Z,46.15
2022-08-19T16:20:28.502Z,46.51
2022-08-19T16:22:58.339Z,47.41
2022-08-19T16:25:30.336Z,47.87
2022-08-19T16:28:07.290Z,47.47
2022-08-19T16:30:37.944Z,47.90
2022-08-19T16:33:06.131Z,50.12
2022-08-19T16:35:34.251Z,48.37
2022-08-19T16:38:02.607Z,48.36
2022-08-19T16:40:32.077Z,49.56
2022-08-19T16:43:00.243Z,47.88
2022-08-19T16:45:28.409Z,48.04
2022-08-19T16:47:57.520Z,48.01
2022-08-19T16:50:46.231Z,47.98
2022-08-19T16:53:13.804Z,49.60
2022-08-19T16:55:43.438Z,48.75
2022-08-19T16:58:11.521Z,48.79
2022-08-19T17:00:39.777Z,80.70
2022-08-19T17:03:14.255Z,94.00
2022-08-19T17:05:43.431Z,100.00
2022-08-19T17:08:11.604Z,100.00
2022-08-19T17:10:39.876Z,100.00
2022-08-19T17:13:11.553Z,100.00
2022-08-19T17:15:39.618Z,100.00
2022-08-19T17:18:08.855Z,100.00
2022-08-19T17:20:39.478Z,100.00
2022-08-19T17:23:10.004Z,100.00
2022-08-19T17:25:41.013Z,100.00
2022-08-19T17:28:09.685Z,100.00
2022-08-19T17:30:39.378Z,100.00
2022-08-19T17:33:09.643Z,100.00
2022-08-19T17:35:43.452Z,100.00
2022-08-19T17:38:16.420Z,100.00
2022-08-19T17:40:45.364Z,100.00
2022-08-19T17:43:14.801Z,100.00
2022-08-19T17:45:45.373Z,100.00
2022-08-19T17:48:16.174Z,100.00
2022-08-19T17:50:44.816Z,100.00
2022-08-19T17:53:16.025Z,100.00
2022-08-19T17:55:44.363Z,100.00
2022-08-19T17:58:16.641Z,100.00
2022-08-19T18:00:53.369Z,100.00
2022-08-19T18:05:50.328Z,100.00
2022-08-19T18:08:18.421Z,100.00
2022-08-19T18:10:46.893Z,100.00
2022-08-19T18:13:17.598Z,100.00
2022-08-19T18:15:47.340Z,100.00
2022-08-19T18:18:19.624Z,100.00
2022-08-19T18:20:49.992Z,100.00
2022-08-19T18:23:44.429Z,100.00
2022-08-19T18:26:07.095Z,100.00
2022-08-19T18:28:35.539Z,100.00
2022-08-19T18:31:04.204Z,100.00
2022-08-19T18:33:34.383Z,100.00
2022-08-19T18:36:12.436Z,100.00
2022-08-19T18:38:58.094Z,100.00
2022-08-19T18:41:45.880Z,100.00
2022-08-19T18:44:31.241Z,100.00
2022-08-19T18:47:16.828Z,100.00
2022-08-19T18:49:46.403Z,100.00
2022-08-19T18:52:15.278Z,100.00
2022-08-19T18:54:46.914Z,100.00
2022-08-19T18:57:33.001Z,100.00
2022-08-19T19:00:02.745Z,100.00
2022-08-19T19:02:38.552Z,100.00
2022-08-19T19:05:11.232Z,100.00
2022-08-19T19:07:39.681Z,100.00
2022-08-19T19:10:08.323Z,100.00
2022-08-19T19:12:37.793Z,100.00
2022-08-19T19:15:06.475Z,100.00
2022-08-19T19:17:34.562Z,100.00
2022-08-19T19:20:05.901Z,100.00
2022-08-19T19:22:37.691Z,100.00
2022-08-19T19:25:08.902Z,100.00
2022-08-19T19:27:37.131Z,100.00
2022-08-19T19:30:06.416Z,100.00
2022-08-19T19:32:39.284Z,100.00
2022-08-19T19:35:09.453Z,100.00
2022-08-19T19:37:43.293Z,100.00
2022-08-19T19:40:11.572Z,100.00
2022-08-19T19:42:39.690Z,100.00
2022-08-19T19:45:08.365Z,100.00
2022-08-19T19:47:36.530Z,100.00
2022-08-19T19:50:14.421Z,100.00
2022-08-19T19:52:46.548Z,100.00
2022-08-19T19:55:17.929Z,100.00
2022-08-19T19:57:46.331Z,100.00
2022-08-19T20:00:16.498Z,100.00
2022-08-19T20:02:49.259Z,100.00
2022-08-19T20:05:21.094Z,100.00
2022-08-19T20:08:09.004Z,100.00
2022-08-19T20:10:37.603Z,100.00
2022-08-19T20:13:06.179Z,100.00
2022-08-19T20:15:37.909Z,98.13
2022-08-19T20:18:11.066Z,96.67
2022-08-19T20:20:41.851Z,95.78
2022-08-19T20:23:11.367Z,89.36
2022-08-19T20:25:40.254Z,87.20
2022-08-19T20:28:12.320Z,88.43
2022-08-19T20:30:46.590Z,89.33
2022-08-19T20:33:16.308Z,86.22
2022-08-19T20:35:44.817Z,84.38
2022-08-19T20:38:14.302Z,83.71
2022-08-19T20:40:44.512Z,83.62
2022-08-19T20:43:13.524Z,82.50
2022-08-19T20:45:44.252Z,84.04
2022-08-19T20:48:12.465Z,83.96
2022-08-19T20:50:40.781Z,84.87
2022-08-19T20:53:13.072Z,84.62
2022-08-19T20:55:45.498Z,84.94
2022-08-19T20:58:14.137Z,86.25
2022-08-19T21:00:43.865Z,88.09
2022-08-19T21:03:12.803Z,88.10
2022-08-19T21:05:40.956Z,88.01
2022-08-19T21:08:09.341Z,88.56
2022-08-19T21:10:42.405Z,88.66
2022-08-19T21:13:12.090Z,89.09
2022-08-19T21:15:43.084Z,91.74
2022-08-19T21:18:12.214Z,92.73
2022-08-19T21:20:43.347Z,93.35
2022-08-19T21:23:15.363Z,94.47
2022-08-19T21:25:54.493Z,96.71
2022-08-19T21:28:34.314Z,100.00
2022-08-19T21:31:05.194Z,100.00
2022-08-19T21:33:33.370Z,100.00
2022-08-19T21:36:01.538Z,100.00
2022-08-19T21:38:30.085Z,100.00
2022-08-19T21:40:58.317Z,100.00
2022-08-19T21:43:31.336Z,100.00
2022-08-19T21:45:59.772Z,100.00
2022-08-19T21:48:30.392Z,100.00
2022-08-19T21:50:58.454Z,100.00
2022-08-19T21:53:26.856Z,100.00
2022-08-19T21:56:02.179Z,100.00
2022-08-19T21:58:31.647Z,100.00
2022-08-19T22:02:39.227Z,100.00
2022-08-19T22:05:09.998Z,100.00
2022-08-19T22:07:38.161Z,100.00
2022-08-19T22:10:07.479Z,100.00
2022-08-19T22:12:39.287Z,100.00
2022-08-19T22:15:15.845Z,100.00
2022-08-19T22:17:49.036Z,100.00
2022-08-19T22:20:18.183Z,100.00
2022-08-19T22:22:47.494Z,100.00
2022-08-19T22:25:31.134Z,100.00
2022-08-19T22:28:04.229Z,100.00
2022-08-19T22:30:34.033Z,100.00
2022-08-19T22:33:05.670Z,100.00
2022-08-19T22:35:35.836Z,100.00
2022-08-19T22:38:07.345Z,100.00
2022-08-19T22:40:36.816Z,100.00
2022-08-19T22:43:05.936Z,100.00
2022-08-19T22:45:35.123Z,100.00
2022-08-19T22:48:04.887Z,100.00
2022-08-19T22:50:33.020Z,100.00
2022-08-19T22:53:02.597Z,100.00
2022-08-19T22:55:31.346Z,100.00
2022-08-19T22:57:59.912Z,100.00
2022-08-19T23:00:29.018Z,100.00
2022-08-19T23:02:58.122Z,100.00
2022-08-19T23:05:28.483Z,100.00
2022-08-19T23:07:58.064Z,100.00
2022-08-19T23:10:29.077Z,100.00
2022-08-19T23:12:58.026Z,100.00
2022-08-19T23:15:27.156Z,100.00
2022-08-19T23:17:56.251Z,100.00
2022-08-19T23:20:27.005Z,100.00
2022-08-19T23:22:57.010Z,100.00
2022-08-19T23:25:27.378Z,100.00
2022-08-19T23:28:13.659Z,100.00
2022-08-19T23:30:43.665Z,100.00
2022-08-19T23:33:15.245Z,100.00
2022-08-19T23:35:43.414Z,100.00
2022-08-19T23:38:12.856Z,100.00
2022-08-19T23:40:43.407Z,100.00
2022-08-19T23:43:16.957Z,100.00
2022-08-19T23:45:51.316Z,100.00
2022-08-19T23:48:19.527Z,100.00
2022-08-19T23:50:47.613Z,100.00
2022-08-19T23:53:17.339Z,100.00
2022-08-19T23:55:48.292Z,100.00
2022-08-19T23:58:16.950Z,100.00
